Time,TemperatureF,DewpointF,PressureIn,WindDirection,WindDirectionDegrees,WindSpeedMPH,WindSpeedGustMPH,Humidity,HourlyPrecipIn,Conditions,Clouds,dailyrainin,SoftwareType,DateUTC
2013-07-26 00:12:00,60.0,39.0,-100.00,WNW,290,6.0,9.0,45,-99.99,,,-99.99,,2013-07-26 06:12:00,
2013-07-26 00:22:00,60.0,39.0,-100.00,WNW,290,6.0,9.0,45,-99.99,,,-99.99,,2013-07-26 06:22:00,
2013-07-26 00:33:00,61.0,39.0,-100.00,NW,319,7.0,10.0,44,-99.99,,,-99.99,,2013-07-26 06:33:00,
2013-07-26 00:43:00,61.0,39.0,-100.00,NW,319,7.0,10.0,44,-99.99,,,-99.99,,2013-07-26 06:43:00,
2013-07-26 01:02:00,60.0,37.0,-100.00,NW,309,6.0,9.0,42,-99.99,,,-99.99,,2013-07-26 07:02:00,
2013-07-26 01:12:00,60.0,37.0,-100.00,NW,309,6.0,9.0,42,-99.99,,,-99.99,,2013-07-26 07:12:00,
2013-07-26 01:22:00,60.0,37.0,-100.00,NW,309,6.0,9.0,42,-99.99,,,-99.99,,2013-07-26 07:22:00,
2013-07-26 01:32:00,60.0,37.0,-100.00,NW,304,6.0,10.0,42,-99.99,,,-99.99,,2013-07-26 07:32:00,
2013-07-26 01:43:00,60.0,37.0,-100.00,NW,304,6.0,10.0,42,-99.99,,,-99.99,,2013-07-26 07:43:00,
2013-07-26 01:53:00,59.0,34.0,-100.00,NW,304,7.0,11.0,39,-99.99,,,-99.99,,2013-07-26 07:53:00,
2013-07-26 02:12:00,59.0,31.0,-100.00,WNW,303,6.0,8.0,35,-99.99,,,-99.99,,2013-07-26 08:12:00,
2013-07-26 02:22:00,59.0,31.0,-100.00,WNW,303,6.0,8.0,35,-99.99,,,-99.99,,2013-07-26 08:22:00,
2013-07-26 02:32:00,60.0,30.0,-100.00,NW,317,5.0,8.0,32,-99.99,,,-99.99,,2013-07-26 08:32:00,
2013-07-26 02:44:00,60.0,30.0,-100.00,NW,317,5.0,8.0,32,-99.99,,,-99.99,,2013-07-26 08:44:00,
2013-07-26 02:52:00,60.0,30.0,-100.00,NNW,334,5.0,8.0,32,-99.99,,,-99.99,,2013-07-26 08:52:00,
2013-07-26 03:12:00,60.0,30.0,-100.00,NNW,335,6.0,10.0,32,-99.99,,,-99.99,,2013-07-26 09:12:00,
2013-07-26 03:22:00,60.0,31.0,-100.00,NNW,342,6.0,9.0,33,-99.99,,,-99.99,,2013-07-26 09:22:00,
2013-07-26 03:43:00,59.0,30.0,-100.00,NW,325,4.0,6.0,33,-99.99,,,-99.99,,2013-07-26 09:43:00,
2013-07-26 03:52:00,60.0,31.0,-100.00,North,356,4.0,5.0,33,-99.99,,,-99.99,,2013-07-26 09:52:00,
2013-07-26 04:12:00,59.0,31.0,-100.00,NNW,345,3.0,4.0,34,-99.99,,,-99.99,,2013-07-26 10:12:00,
2013-07-26 04:22:00,59.0,30.0,-100.00,North,6,2.0,4.0,33,-99.99,,,-99.99,,2013-07-26 10:22:00,
2013-07-26 04:32:00,59.0,31.0,-100.00,SW,231,2.0,4.0,34,-99.99,,,-99.99,,2013-07-26 10:32:00,
2013-07-26 04:42:00,59.0,31.0,-100.00,SW,231,2.0,4.0,34,-99.99,,,-99.99,,2013-07-26 10:42:00,
2013-07-26 04:52:00,60.0,32.0,-100.00,SSE,167,5.0,7.0,34,-99.99,,,-99.99,,2013-07-26 10:52:00,
2013-07-26 05:02:00,60.0,32.0,-100.00,SSW,195,5.0,7.0,34,-99.99,,,-99.99,,2013-07-26 11:02:00,
2013-07-26 05:12:00,60.0,32.0,-100.00,SSW,195,5.0,7.0,34,-99.99,,,-99.99,,2013-07-26 11:12:00,
2013-07-26 05:22:00,60.0,32.0,-100.00,WSW,244,6.0,11.0,34,-99.99,,,-99.99,,2013-07-26 11:22:00,
2013-07-26 05:32:00,60.0,32.0,-100.00,WSW,244,6.0,11.0,34,-99.99,,,-99.99,,2013-07-26 11:32:00,
2013-07-26 05:43:00,61.0,32.0,-100.00,West,260,9.0,14.0,33,-99.99,,,-99.99,,2013-07-26 11:43:00,
2013-07-26 05:52:00,61.0,31.0,-100.00,West,270,9.0,13.0,32,-99.99,,,-99.99,,2013-07-26 11:52:00,
2013-07-26 06:02:00,60.0,29.0,-100.00,West,280,7.0,13.0,31,-99.99,,,-99.99,,2013-07-26 12:02:00,
2013-07-26 06:12:00,60.0,29.0,-100.00,West,280,7.0,13.0,31,-99.99,,,-99.99,,2013-07-26 12:12:00,
2013-07-26 06:22:00,60.0,28.0,-100.00,WNW,283,6.0,12.0,29,-99.99,,,-99.99,,2013-07-26 12:22:00,
2013-07-26 06:43:00,60.0,28.0,-100.00,WNW,282,8.0,13.0,30,-99.99,,,-99.99,,2013-07-26 12:43:00,
2013-07-26 06:53:00,60.0,28.0,-100.00,WNW,285,7.0,10.0,30,-99.99,,,-99.99,,2013-07-26 12:53:00,
2013-07-26 07:02:00,60.0,28.0,-100.00,WNW,285,7.0,10.0,30,-99.99,,,-99.99,,2013-07-26 13:02:00,
2013-07-26 07:12:00,60.0,28.0,-100.00,WNW,288,6.0,12.0,30,-99.99,,,-99.99,,2013-07-26 13:12:00,
2013-07-26 07:22:00,61.0,29.0,-100.00,WNW,288,5.0,10.0,29,-99.99,,,-99.99,,2013-07-26 13:22:00,
2013-07-26 07:32:00,61.0,29.0,-100.00,WNW,288,5.0,10.0,29,-99.99,,,-99.99,,2013-07-26 13:32:00,
2013-07-26 07:43:00,62.0,28.0,-100.00,WNW,292,5.0,10.0,27,-99.99,,,-99.99,,2013-07-26 13:43:00,
2013-07-26 07:53:00,63.0,28.0,-100.00,WNW,287,5.0,13.0,26,-99.99,,,-99.99,,2013-07-26 13:53:00,
2013-07-26 08:02:00,63.0,28.0,-100.00,WNW,287,5.0,13.0,26,-99.99,,,-99.99,,2013-07-26 14:02:00,
2013-07-26 10:43:00,70.0,36.0,-100.00,NNW,328,4.0,9.0,29,-99.99,,,-99.99,,2013-07-26 16:43:00,
2013-07-26 10:54:00,71.0,36.0,-100.00,NNW,331,6.0,11.0,28,-99.99,,,-99.99,,2013-07-26 16:54:00,
2013-07-26 11:02:00,71.0,36.0,-100.00,NNW,331,6.0,11.0,28,-99.99,,,-99.99,,2013-07-26 17:02:00,
2013-07-26 11:43:00,72.0,31.0,-100.00,NNW,333,8.0,14.0,22,-99.99,,,-99.99,,2013-07-26 17:43:00,
2013-07-26 11:53:00,72.0,31.0,-100.00,NNW,333,8.0,13.0,22,-99.99,,,-99.99,,2013-07-26 17:53:00,
2013-07-26 12:02:00,72.0,31.0,-100.00,NNW,333,8.0,13.0,22,-99.99,,,-99.99,,2013-07-26 18:02:00,
2013-07-26 12:12:00,72.0,33.0,-100.00,NNW,335,8.0,12.0,24,-99.99,,,-99.99,,2013-07-26 18:12:00,
2013-07-26 12:22:00,73.0,33.0,-100.00,NNW,339,7.0,14.0,23,-99.99,,,-99.99,,2013-07-26 18:22:00,
2013-07-26 12:33:00,73.0,33.0,-100.00,NNW,339,7.0,14.0,23,-99.99,,,-99.99,,2013-07-26 18:33:00,
2013-07-26 12:43:00,73.0,33.0,-100.00,NNW,335,8.0,15.0,23,-99.99,,,-99.99,,2013-07-26 18:43:00,
2013-07-26 12:52:00,74.0,32.0,-100.00,NNW,330,6.0,12.0,21,-99.99,,,-99.99,,2013-07-26 18:52:00,
2013-07-26 13:02:00,73.0,31.0,-100.00,NW,306,5.0,13.0,21,-99.99,,,-99.99,,2013-07-26 19:02:00,
2013-07-26 13:12:00,73.0,31.0,-100.00,NW,306,5.0,13.0,21,-99.99,,,-99.99,,2013-07-26 19:12:00,
2013-07-26 13:43:00,74.0,28.0,-100.00,WNW,300,4.0,11.0,18,-99.99,,,-99.99,,2013-07-26 19:43:00,
2013-07-26 14:02:00,74.0,23.0,-100.00,West,271,4.0,9.0,15,-99.99,,,-99.99,,2013-07-26 20:02:00,
2013-07-26 14:12:00,75.0,24.0,-100.00,NW,310,5.0,14.0,15,-99.99,,,-99.99,,2013-07-26 20:12:00,
2013-07-26 14:43:00,76.0,22.0,-100.00,WNW,293,5.0,13.0,13,-99.99,,,-99.99,,2013-07-26 20:43:00,
2013-07-26 16:43:00,72.0,18.0,-100.00,WNW,301,6.0,20.0,13,-99.99,,,-99.99,,2013-07-26 22:43:00,
2013-07-26 17:02:00,75.0,21.0,-100.00,WNW,284,3.0,10.0,13,-99.99,,,-99.99,,2013-07-26 23:02:00,
2013-07-26 17:12:00,75.0,21.0,-100.00,WNW,284,3.0,10.0,13,-99.99,,,-99.99,,2013-07-26 23:12:00,
2013-07-26 17:32:00,73.0,19.0,-100.00,WNW,289,4.0,13.0,13,-99.99,,,-99.99,,2013-07-26 23:32:00,
2013-07-26 17:43:00,72.0,18.0,-100.00,NW,306,5.0,14.0,13,-99.99,,,-99.99,,2013-07-26 23:43:00,
2013-07-26 17:53:00,72.0,18.0,-100.00,NW,310,5.0,14.0,13,-99.99,,,-99.99,,2013-07-26 23:53:00,
2013-07-26 18:02:00,72.0,18.0,-100.00,NW,310,5.0,14.0,13,-99.99,,,-99.99,,2013-07-27 00:02:00,
2013-07-26 18:12:00,74.0,20.0,-100.00,WNW,282,4.0,10.0,13,-99.99,,,-99.99,,2013-07-27 00:12:00,
2013-07-26 18:42:00,74.0,20.0,-100.00,WNW,299,3.0,15.0,13,-99.99,,,-99.99,,2013-07-27 00:42:00,
2013-07-26 18:53:00,73.0,19.0,-100.00,WNW,298,4.0,16.0,13,-99.99,,,-99.99,,2013-07-27 00:53:00,
2013-07-26 19:02:00,74.0,18.0,-100.00,WSW,249,2.0,7.0,12,-99.99,,,-99.99,,2013-07-27 01:02:00,
2013-07-26 19:12:00,74.0,18.0,-100.00,WSW,249,2.0,7.0,12,-99.99,,,-99.99,,2013-07-27 01:12:00,
2013-07-26 19:43:00,69.0,18.0,-100.00,West,278,8.0,16.0,14,-99.99,,,-99.99,,2013-07-27 01:43:00,
2013-07-26 19:53:00,69.0,18.0,-100.00,WNW,287,6.0,14.0,14,-99.99,,,-99.99,,2013-07-27 01:53:00,
2013-07-26 20:02:00,69.0,18.0,-100.00,WNW,287,6.0,14.0,14,-99.99,,,-99.99,,2013-07-27 02:02:00,
2013-07-26 20:12:00,67.0,18.0,-100.00,West,277,7.0,13.0,15,-99.99,,,-99.99,,2013-07-27 02:12:00,
2013-07-26 20:32:00,66.0,19.0,-100.00,West,272,10.0,14.0,16,-99.99,,,-99.99,,2013-07-27 02:32:00,
2013-07-26 20:43:00,66.0,19.0,-100.00,West,272,10.0,14.0,16,-99.99,,,-99.99,,2013-07-27 02:43:00,
2013-07-26 20:53:00,66.0,19.0,-100.00,West,269,10.0,16.0,16,-99.99,,,-99.99,,2013-07-27 02:53:00,
2013-07-26 21:02:00,65.0,19.0,-100.00,West,266,11.0,15.0,17,-99.99,,,-99.99,,2013-07-27 03:02:00,
2013-07-26 21:12:00,65.0,19.0,-100.00,West,266,11.0,15.0,17,-99.99,,,-99.99,,2013-07-27 03:12:00,
2013-07-26 21:44:00,65.0,18.0,-100.00,West,260,11.0,14.0,16,-99.99,,,-99.99,,2013-07-27 03:44:00,